Spaceon02064 — ASD — position and weather

sailwx.info

Track history (hours):
 
Tides and Currents Weather Stations Pressure Air Temp Water Temp Dewpoint Dewpoint Depression Visibility Wind Speed Wind Dir Waves Ship Positions

Spaceon02064

Last reported at 2015-Jan-25 19:33 UTC. Time now 2015-Jan-25 20:27 UTC.
Position N 31°22' E 121°28'.

Length 6 m.

Type: Ship. MMSI: 200902064.

Date/timePositionNaut miles runAvg speedWind from/ knotsBaromVisibWave heightAir tempDewpointWater temp
2015-Jan-25 19:33N 31°22' E 121°28'1313.1
2015-Jan-25 18:33N 31°22' E 121°43'1347035.6
2015-Jan-25 18:33N 31°22' E 121°28'1313.1
2015-Jan-25 17:33N 31°22' E 121°43'1311758.9
2015-Jan-25 17:33N 31°22' E 121°28'420993.9
2015-Jan-25 17:08N 24°47' E 118°46'425728.6
2015-Jan-25 16:33N 31°22' E 121°43'132231.0
2015-Jan-25 16:33N 31°22' E 121°28'1313.2
2015-Jan-25 15:33N 31°22' E 121°43'1315617.0
2015-Jan-25 15:33N 31°22' E 121°28'23722373.1
2015-Jan-25 14:33N 31°22' E 167°45'2372406586.4
2015-Jan-25 14:33N 31°22' E 121°28'1313.1
2015-Jan-25 13:33N 31°22' E 121°43'1315678.5
2015-Jan-25 13:33N 31°22' E 121°28'1313.1
2015-Jan-25 12:33N 31°22' E 121°43'13578.4
2015-Jan-25 12:32N 31°22' E 121°28'1313.3
2015-Jan-25 11:33N 31°22' E 121°43'13571.4
2015-Jan-25 11:32N 31°22' E 121°28'1313.3
2015-Jan-25 10:33N 31°22' E 121°43'0 0.0
2015-Jan-25 09:33N 31°22' E 121°43'1313.1
2015-Jan-25 08:33N 31°22' E 121°28'135226.2
2015-Jan-25 08:33N 31°22' E 121°43'1313.0
2015-Jan-25 07:33N 31°22' E 121°28'1346850.9
2015-Jan-25 07:33N 31°22' E 121°43'0 0.0
2015-Jan-25 06:33N 31°22' E 121°43'132239.8
2015-Jan-25 06:33N 31°22' E 121°28'0 0.0
2015-Jan-25 05:33N 31°22' E 121°28'224038.8
2015-Jan-25 05:33N 30°59' E 121°24'285013.7
2015-Jan-25 05:33N 31°22' E 121°43'1111.3
2015-Jan-25 04:33N 31°23' E 121°30'1120013.8
2015-Jan-25 04:33N 31°22' E 121°43'1346851.1
2015-Jan-25 04:33N 31°22' E 121°28'264216.2
2015-Jan-25 04:33N 30°57' E 121°17'3333.1
2015-Jan-25 03:33N 31°22' E 121°43'364675.5
2015-Jan-25 03:33N 30°57' E 121°12'3921815.1
2015-Jan-25 03:20N 24°47' E 118°46'425547.2
2015-Jan-25 02:33N 31°22' E 121°43'64862.7
2015-Jan-25 02:29N 32°02' E 120°45'64692.9
2015-Jan-25 02:23N 31°01' E 121°06'3845.5
2015-Jan-25 01:33N 31°22' E 121°43'42220.5
2015-Jan-25 01:22N 31°01' E 121°00'4251.8
2015-Jan-25 00:33N 31°22' E 121°43'454917.1
2015-Jan-25 00:33N 31°01' E 120°56'4545.5
2015-Jan-24 23:33N 31°22' E 121°43'0 0.0
2015-Jan-24 22:33N 31°22' E 121°43'0 0.0
2015-Jan-24 21:33N 31°22' E 121°43'0 0.0
2015-Jan-24 20:33N 31°22' E 121°43'13117.3
2015-Jan-24 20:27N 31°22' E 121°28'0 0.1
2015-Jan-24 19:33N 31°22' E 121°28'135205.7
2015-Jan-24 19:33N 31°22' E 121°43'1313.1
2015-Jan-24 18:33N 31°22' E 121°28'135226.2
2015-Jan-24 18:33N 31°22' E 121°43'28252.6
2015-Jan-24 18:26N 30°59' E 122°03'23452643.4
2015-Jan-24 17:33N 31°22' E 167°44'23582363.6
2015-Jan-24 16:33N 31°22' E 121°43'45911.2
2015-Jan-24 16:30N 31°46' E 120°59'4546.9
2015-Jan-24 15:33N 31°22' E 121°43'501136.3
2015-Jan-24 15:31N 31°50' E 120°54'53432.9
2015-Jan-24 15:23N 31°05' E 121°28'2125.3
2015-Jan-24 14:33N 31°22' E 121°43'55769.2
2015-Jan-24 14:29N 31°56' E 120°52'5559.8
2015-Jan-24 13:33N 31°22' E 121°43'6027106.2
2015-Jan-24 13:33N 32°00' E 120°48'6060.4
2015-Jan-24 12:33N 31°22' E 121°43'0 0.0
2015-Jan-24 11:33N 31°22' E 121°43'0 0.0
2015-Jan-24 10:33N 31°22' E 121°43'13223.1
2015-Jan-24 10:30N 31°22' E 121°28'1313.9
2015-Jan-24 09:33N 31°22' E 121°43'0 0.1
2015-Jan-24 08:33N 31°22' E 121°43'0 0.0
2015-Jan-24 07:33N 31°22' E 121°43'15139.8
2015-Jan-24 07:27N 31°21' E 121°26'41820058.7
2015-Jan-24 07:26N 24°47' E 118°47'424484.6
2015-Jan-24 06:33N 31°22' E 121°43'153497.6
2015-Jan-24 06:33N 31°21' E 121°26'1680.9
2015-Jan-24 06:21N 31°05' E 121°28'2126.6
2015-Jan-24 05:33N 31°22' E 121°43'15607.9
2015-Jan-24 05:32N 31°21' E 121°26'563446.7
2015-Jan-24 05:31N 32°04' E 120°45'6568.0
2015-Jan-24 04:33N 31°22' E 121°43'153267.6
2015-Jan-24 04:33N 31°21' E 121°26'0 0.0
2015-Jan-24 03:33N 31°21' E 121°26'1510456.0
2015-Jan-24 03:33N 31°22' E 121°43'0 0.0
2015-Jan-24 02:33N 31°22' E 121°43'153485.5
2015-Jan-24 02:33N 31°21' E 121°26'1514.5
2015-Jan-24 01:33N 31°22' E 121°43'153485.4
2015-Jan-24 01:33N 31°21' E 121°26'0 0.0
2015-Jan-24 00:33N 31°21' E 121°26'15804.3
2015-Jan-24 00:32N 31°22' E 121°43'1514.8
2015-Jan-23 23:33N 31°21' E 121°26'15815.5
2015-Jan-23 23:32N 31°22' E 121°43'1515.0
2015-Jan-23 22:33N 31°21' E 121°26'1513252.0
2015-Jan-23 22:33N 31°22' E 121°43'1514.7
2015-Jan-23 21:33N 31°21' E 121°26'1510601.8
2015-Jan-23 21:33N 31°22' E 121°43'0 0.0
2015-Jan-23 20:33N 31°22' E 121°43'153533.9
2015-Jan-23 20:33N 31°21' E 121°26'1514.8
2015-Jan-23 19:33N 31°22' E 121°43'153533.9
2015-Jan-23 19:33N 31°21' E 121°26'0 0.0
2015-Jan-23 18:34N 31°21' E 121°26'1510601.6
2015-Jan-23 18:33N 31°22' E 121°43'0 0.0
2015-Jan-23 17:33N 31°22' E 121°43'15706.8
2015-Jan-23 17:32N 31°21' E 121°26'1515.0
2015-Jan-23 16:33N 31°22' E 121°43'15214.6
2015-Jan-23 16:29N 31°21' E 121°26'1515.9
2015-Jan-23 15:33N 31°22' E 121°43'15546.5
2015-Jan-23 15:32N 31°21' E 121°26'1515.1
2015-Jan-23 14:33N 31°22' E 121°43'153534.0
2015-Jan-23 14:33N 31°21' E 121°26'1514.8
2015-Jan-23 13:33N 31°22' E 121°43'15981.7
2015-Jan-23 13:32N 31°21' E 121°26'0 0.0
2015-Jan-23 12:33N 31°21' E 121°26'1513252.2
2015-Jan-23 12:33N 31°22' E 121°43'1414.5
2015-Jan-23 11:33N 31°21' E 121°26'142170.4
2015-Jan-23 11:33N 31°22' E 121°43'1414.4
2015-Jan-23 10:33N 31°21' E 121°27'1410302.5
2015-Jan-23 10:33N 31°22' E 121°43'1414.3
2015-Jan-23 09:33N 31°21' E 121°27'1410302.2
2015-Jan-23 09:33N 31°22' E 121°43'1414.3
2015-Jan-23 08:33N 31°21' E 121°27'143434.1
2015-Jan-23 08:33N 31°22' E 121°43'21801.0
2015-Jan-23 08:32N 31°05' E 121°28'1616.8
2015-Jan-23 07:33N 31°21' E 121°27'1412877.7
2015-Jan-23 07:33N 31°22' E 121°43'21112.1
2015-Jan-23 07:22N 31°05' E 121°28'1620.1
2015-Jan-23 06:33N 31°21' E 121°27'146438.9
2015-Jan-23 06:33N 31°22' E 121°43'0 0.2
2015-Jan-23 05:33N 31°22' E 121°43'1414.2
2015-Jan-23 04:33N 31°21' E 121°27'141415.7
2015-Jan-23 04:33N 31°22' E 121°43'0 0.0
2015-Jan-23 03:33N 31°22' E 121°43'14485.4
2015-Jan-23 03:31N 31°21' E 121°27'16273.5
2015-Jan-23 03:27N 31°05' E 121°28'2123.7
2015-Jan-23 02:33N 31°22' E 121°43'14536.5
2015-Jan-23 02:32N 31°21' E 121°27'7253.3
2015-Jan-23 02:30N 31°27' E 121°29'2393.3
2015-Jan-23 02:16N 31°05' E 121°28'2130.2
2015-Jan-23 01:33N 31°22' E 121°43'141415.7
2015-Jan-23 01:33N 31°21' E 121°27'5371.1
2015-Jan-23 01:32N 31°25' E 121°31'1111.0
2015-Jan-23 00:33N 31°22' E 121°43'141415.7
2015-Jan-23 00:33N 31°21' E 121°27'1414.3
2015-Jan-22 23:33N 31°22' E 121°43'147281.0
2015-Jan-22 23:33N 31°21' E 121°27'0 0.0
2015-Jan-22 22:33N 31°21' E 121°27'1416988.6
2015-Jan-22 22:33N 31°22' E 121°43'0 0.0
2015-Jan-22 21:33N 31°22' E 121°43'148494.5
2015-Jan-22 21:33N 31°21' E 121°27'1414.2
2015-Jan-22 20:33N 31°22' E 121°43'14374.8
2015-Jan-22 20:31N 31°21' E 121°27'1414.7
2015-Jan-22 19:33N 31°22' E 121°43'1414.0
2015-Jan-22 18:33N 31°21' E 121°27'1412598.6
2015-Jan-22 18:33N 31°22' E 121°43'2176197.5
2015-Jan-22 18:33N 31°05' E 121°28'1818.5
2015-Jan-22 17:33N 31°23' E 121°30'111667.7
2015-Jan-22 17:33N 31°22' E 121°43'0 0.0
2015-Jan-22 16:33N 31°22' E 121°43'0 0.0
2015-Jan-22 15:33N 31°22' E 121°43'11599.7
2015-Jan-22 15:32N 31°24' E 121°31'2626.9
2015-Jan-22 14:33N 30°59' E 121°22'2951783.7
2015-Jan-22 14:33N 31°22' E 121°43'11532.1
2015-Jan-22 14:32N 31°24' E 121°31'1111.2
2015-Jan-22 13:33N 31°22' E 121°43'131529.1
2015-Jan-22 13:33N 31°26' E 121°29'1313.3
2015-Jan-22 12:33N 31°22' E 121°43'2251.7
2015-Jan-22 12:08N 31°32' E 121°20'2239.0
2015-Jan-22 11:33N 31°22' E 121°43'0 0.0
2015-Jan-22 10:33N 31°22' E 121°43'0 0.0
2015-Jan-22 09:33N 31°22' E 121°43'0 0.0
2015-Jan-22 08:33N 31°22' E 121°43'0 0.0
2015-Jan-22 07:33N 31°22' E 121°43'0 0.0
2015-Jan-22 06:33N 31°22' E 121°43'0 0.0
2015-Jan-22 05:33N 31°22' E 121°43'41560.4
2015-Jan-22 05:29N 31°45' E 121°04'4144.3
2015-Jan-22 04:33N 31°22' E 121°43'0 0.0
2015-Jan-22 03:33N 31°22' E 121°43'0 0.0
2015-Jan-22 02:33N 31°22' E 121°43'451814.6
2015-Jan-22 02:32N 31°46' E 120°59'4546.2
2015-Jan-22 01:33N 31°22' E 121°43'511251.6
2015-Jan-22 01:31N 31°51' E 120°53'7 7.0
2015-Jan-22 00:34N 31°57' E 120°51'577558.8
2015-Jan-22 00:33N 31°22' E 121°43'0 0.0
2015-Jan-21 23:33N 31°22' E 121°43'5917659.3
2015-Jan-21 23:33N 31°59' E 120°50'5983.2
2015-Jan-21 22:50N 31°22' E 121°43'5917658.2
2015-Jan-21 22:50N 31°59' E 120°50'59890.3
2015-Jan-21 22:46N 31°22' E 121°43'5970637.4
2015-Jan-21 22:46N 31°59' E 120°50'0 0.0
2015-Jan-21 22:34N 31°59' E 120°50'598150.5
2015-Jan-21 22:33N 31°22' E 121°43'0 0.0
2015-Jan-21 21:33N 31°22' E 121°43'59211939.3
2015-Jan-21 21:33N 31°59' E 120°50'0 0.1
2015-Jan-21 20:34N 31°59' E 120°50'5930307.1
2015-Jan-21 20:33N 31°22' E 121°43'5959.1
2015-Jan-21 19:34N 31°59' E 120°49'5935384.3
2015-Jan-21 19:33N 31°22' E 121°43'0 0.0
2015-Jan-21 18:33N 31°22' E 121°43'59578.5
2015-Jan-21 18:27N 31°59' E 120°49'26183.0
2015-Jan-21 18:19N 31°58' E 120°18'81106.0
2015-Jan-21 17:33N 31°22' E 121°43'7893392.4
2015-Jan-21 17:33N 32°00' E 120°24'227221.2
2015-Jan-21 17:33N 31°59' E 120°50'5959.6
2015-Jan-21 16:33N 31°22' E 121°43'742359.8
2015-Jan-21 16:32N 32°02' E 120°30'171041.1
2015-Jan-21 16:31N 31°59' E 120°50'5961.8
2015-Jan-21 15:33N 31°22' E 121°43'5917659.3
2015-Jan-21 15:33N 31°59' E 120°50'5959.1
2015-Jan-21 14:33N 31°22' E 121°43'5942382.4
2015-Jan-21 14:33N 31°59' E 120°50'5959.0
2015-Jan-21 13:33N 31°22' E 121°43'59566.6
2015-Jan-21 13:27N 31°59' E 120°50'1 4.5
2015-Jan-21 13:13N 31°59' E 120°51'5887.2
2015-Jan-21 12:33N 31°22' E 121°43'62654.7
2015-Jan-21 12:28N 32°00' E 120°47'856.7
2015-Jan-21 12:19N 31°54' E 120°53'5370.5
2015-Jan-21 11:33N 31°22' E 121°43'66447.4
2015-Jan-21 11:25N 31°60' E 120°39'18213.3
2015-Jan-21 11:20N 31°49' E 120°56'4963.4
2015-Jan-21 10:33N 31°22' E 121°43'714109.0
2015-Jan-21 10:32N 32°00' E 120°34'7171.8
2015-Jan-21 09:33N 31°22' E 121°43'7522636.1
2015-Jan-21 09:33N 32°02' E 120°28'7575.9
2015-Jan-21 08:33N 31°22' E 121°43'78139805.3
2015-Jan-21 08:33N 32°00' E 120°24'51127.4
2015-Jan-21 08:09N 31°38' E 121°18'2744.9
2015-Jan-21 07:33N 31°22' E 121°43'2280774.1
2015-Jan-21 07:33N 31°37' E 121°24'57403.4
2015-Jan-21 07:25N 31°59' E 120°21'0 0.1
2015-Jan-21 06:34N 31°59' E 120°21'7917737.2
2015-Jan-21 06:33N 31°22' E 121°43'8282.4
2015-Jan-21 05:33N 31°56' E 120°16'823360.7
2015-Jan-21 05:32N 31°22' E 121°43'20197.5
2015-Jan-21 05:26N 31°07' E 121°28'8496.3
2015-Jan-21 04:34N 31°56' E 120°07'8337282.5
2015-Jan-21 04:33N 31°12' E 121°29'154245.7
2015-Jan-21 04:33N 31°22' E 121°43'1424867.5
2015-Jan-21 04:33N 31°13' E 121°30'1413.9
2015-Jan-21 03:33N 31°22' E 121°43'0 0.0
2015-Jan-21 02:33N 31°22' E 121°43'1197.3
2015-Jan-21 02:26N 31°21' E 121°30'1112.4
2015-Jan-21 01:33N 31°22' E 121°43'1334.5
2015-Jan-21 01:10N 31°26' E 121°28'1321.6
2015-Jan-21 00:33N 31°22' E 121°43'0 0.0
2015-Jan-20 23:33N 31°22' E 121°43'0 0.0
2015-Jan-20 22:33N 31°22' E 121°43'0 0.0
2015-Jan-20 21:33N 31°22' E 121°43'0 0.0
2015-Jan-20 20:34N 31°22' E 121°43'0 0.0
2015-Jan-20 19:33N 31°22' E 121°43'0 0.0
2015-Jan-20 18:33N 31°22' E 121°43'0 0.0
2015-Jan-20 17:33N 31°22' E 121°43'17826.0
2015-Jan-20 17:32N 31°34' E 121°30'1717.3
2015-Jan-20 16:33N 31°22' E 121°43'0 0.0
2015-Jan-20 15:33N 31°22' E 121°43'0 0.0
2015-Jan-20 14:33N 31°22' E 121°43'0 0.0
2015-Jan-20 13:33N 31°22' E 121°43'0 0.0
2015-Jan-20 12:33N 31°22' E 121°43'1861.0
2015-Jan-20 12:15N 31°07' E 121°55'5 7.3
2015-Jan-20 11:33N 31°10' E 121°51'1323585.2
2015-Jan-20 11:33N 31°22' E 121°43'0 0.0
2015-Jan-20 10:33N 31°22' E 121°43'0 0.0
2015-Jan-20 09:32N 31°22' E 121°43'0 0.0
2015-Jan-20 08:33N 31°22' E 121°43'0 0.0
2015-Jan-20 07:33N 31°22' E 121°43'0 0.0
2015-Jan-20 06:33N 31°22' E 121°43'0 0.0
2015-Jan-20 05:33N 31°22' E 121°43'0 0.0
2015-Jan-20 04:32N 31°22' E 121°43'0 0.0
2015-Jan-20 03:33N 31°22' E 121°43'424217833.0
2015-Jan-20 03:33N 24°47' E 118°49'424414.6
2015-Jan-20 02:32N 31°22' E 121°43'0 0.1
2015-Jan-20 01:33N 31°22' E 121°43'1044.5
2015-Jan-20 01:19N 31°25' E 121°32'4 4.9
2015-Jan-20 00:33N 31°21' E 121°32'6 5.4
2015-Jan-19 23:26N 31°15' E 121°30'13 6.8
2015-Jan-19 21:32N 31°22' E 121°43'0 0.0
2015-Jan-19 20:33N 31°22' E 121°43'0 0.0
2015-Jan-19 19:33N 31°22' E 121°43'17664.5
2015-Jan-19 19:32N 31°34' E 121°30'1717.4
2015-Jan-19 18:33N 31°22' E 121°43'0 0.0
2015-Jan-19 17:33N 31°22' E 121°43'0 0.0
2015-Jan-19 16:33N 31°22' E 121°43'410.9
2015-Jan-19 16:13N 31°24' E 121°46'4 5.8
2015-Jan-19 15:33N 31°22' E 121°43'5518.8
2015-Jan-19 15:33N 31°19' E 121°48'5 4.9
2015-Jan-19 14:33N 31°22' E 121°43'221.2
2015-Jan-19 14:29N 31°20' E 121°43'2 1.7
2015-Jan-19 13:33N 31°22' E 121°43'686.0
2015-Jan-19 13:29N 31°16' E 121°46'6 6.6
2015-Jan-19 12:33N 31°22' E 121°43'14421.1
2015-Jan-19 12:32N 31°10' E 121°52'1414.4
2015-Jan-19 11:33N 31°22' E 121°43'0 0.0
2015-Jan-19 10:33N 31°22' E 121°43'0 0.0
2015-Jan-19 09:33N 31°22' E 121°43'0 0.0
2015-Jan-19 08:33N 31°22' E 121°43'2166.1
2015-Jan-19 08:14N 31°05' E 121°28'2131.6
2015-Jan-19 07:33N 31°22' E 121°43'0 0.0
2015-Jan-19 06:33N 31°22' E 121°43'34153.6
2015-Jan-19 06:20N 30°58' E 121°15'45490.6
2015-Jan-19 06:15N 30°49' E 122°07'3956.1
2015-Jan-19 05:33N 31°22' E 121°43'212257.6
2015-Jan-19 05:33N 31°05' E 121°28'3598.3
2015-Jan-19 05:12N 30°44' E 121°60'4163.6
2015-Jan-19 04:33N 31°22' E 121°43'2262.4
2015-Jan-19 04:12N 31°03' E 121°29'2234.7
2015-Jan-19 03:33N 31°22' E 121°43'191340.2
2015-Jan-19 03:32N 31°07' E 121°28'1919.7
2015-Jan-19 02:33N 31°22' E 121°43'1479.5
2015-Jan-19 02:23N 31°14' E 121°30'1416.8
2015-Jan-19 01:33N 31°22' E 121°43'1110.8
2015-Jan-19 00:33N 31°21' E 121°31'119692.4
2015-Jan-19 00:33N 31°22' E 121°43'211110.1
2015-Jan-19 00:32N 31°05' E 121°28'2121.6
2015-Jan-18 23:33N 31°22' E 121°43'13257.3
2015-Jan-18 23:30N 31°26' E 121°29'1313.9
2015-Jan-18 22:33N 31°22' E 121°43'851183.5
2015-Jan-18 22:28N 29°58' E 122°03'8593.3
2015-Jan-18 21:33N 31°22' E 121°43'0 0.0
2015-Jan-18 20:33N 31°22' E 121°43'963799.4
2015-Jan-18 20:32N 29°47' E 122°04'9698.5
2015-Jan-18 19:33N 31°22' E 121°43'0 0.0
2015-Jan-18 18:33N 31°22' E 121°43'0 0.0
2015-Jan-18 17:33N 31°22' E 121°43'0 0.0
2015-Jan-18 16:33N 31°22' E 121°43'0 0.0
2015-Jan-18 15:33N 31°22' E 121°43'0 0.0
2015-Jan-18 14:33N 31°22' E 121°43'0 0.0
2015-Jan-18 13:33N 31°22' E 121°43'0 0.0
2015-Jan-18 12:33N 31°22' E 121°43'0 0.0
2015-Jan-18 11:33N 31°22' E 121°43'0 0.0
2015-Jan-18 10:33N 31°22' E 121°43'6114551.8
2015-Jan-18 10:33N 32°00' E 120°48'6160.5
2015-Jan-18 09:33N 31°22' E 121°43'661898.6
2015-Jan-18 09:31N 31°60' E 120°39'6 6.5
2015-Jan-18 08:33N 32°01' E 120°32'7286878.9
2015-Jan-18 08:33N 31°22' E 121°43'7777.1
2015-Jan-18 07:33N 32°01' E 120°25'7719789.3
2015-Jan-18 07:33N 31°22' E 121°43'7979.7
2015-Jan-18 06:33N 31°58' E 120°20'79142974.2
2015-Jan-18 06:33N 31°22' E 121°43'0 0.0
2015-Jan-18 05:34N 31°22' E 121°43'8221148.3
2015-Jan-18 05:33N 31°56' E 120°15'8282.3
2015-Jan-18 04:33N 31°22' E 121°43'8710465.0
2015-Jan-18 04:33N 31°56' E 120°09'8788.0
2015-Jan-18 03:33N 31°22' E 121°43'96507.4
2015-Jan-18 03:22N 31°59' E 119°60'96117.1
2015-Jan-18 02:33N 31°22' E 121°43'0 0.0
2015-Jan-18 01:33N 31°22' E 121°43'0 0.0
2015-Jan-18 00:33N 31°22' E 121°43'4252316.5
2015-Jan-18 00:22N 24°47' E 118°46'425518.6
2015-Jan-17 23:33N 31°22' E 121°43'4259046.6
2015-Jan-17 23:30N 24°47' E 118°46'425446.8
2015-Jan-17 22:33N 31°22' E 121°43'425885.8
2015-Jan-17 22:05N 24°47' E 118°46'425816.3
2015-Jan-17 21:33N 31°22' E 121°43'2459.7
2015-Jan-17 21:09N 31°02' E 121°59'2440.7
2015-Jan-17 20:33N 31°22' E 121°43'0 0.0
2015-Jan-17 19:33N 31°22' E 121°43'0 0.0
2015-Jan-17 18:33N 31°22' E 121°43'0 0.0
2015-Jan-17 17:33N 31°22' E 121°43'0 0.0
2015-Jan-17 16:33N 31°22' E 121°43'0 0.0
2015-Jan-17 15:33N 31°22' E 121°43'0 0.0
2015-Jan-17 14:33N 31°22' E 121°43'0 0.0
2015-Jan-17 13:33N 31°22' E 121°43'0 0.0
2015-Jan-17 12:33N 31°22' E 121°43'0 0.0
2015-Jan-17 11:33N 31°22' E 121°43'0 0.0
2015-Jan-17 10:33N 31°22' E 121°43'4253294.9
2015-Jan-17 10:25N 24°47' E 118°46'425489.4
2015-Jan-17 09:33N 31°22' E 121°43'4253203.9
2015-Jan-17 09:25N 24°47' E 118°46'425487.6
2015-Jan-17 08:33N 31°22' E 121°43'42114147.7
2015-Jan-17 08:31N 24°48' E 118°56'405847.9
2015-Jan-17 08:03N 31°10' E 121°28'1836.0
2015-Jan-17 07:33N 31°22' E 121°43'0 0.0
2015-Jan-17 06:33N 31°22' E 121°43'0 0.0
2015-Jan-17 05:33N 31°22' E 121°43'28260.1
2015-Jan-17 05:27N 30°59' E 121°24'2831.1
2015-Jan-17 04:33N 31°22' E 121°43'291110.8
2015-Jan-17 04:32N 30°59' E 121°22'2929.8
2015-Jan-17 03:33N 31°22' E 121°43'291044.0
2015-Jan-17 03:32N 30°59' E 121°22'2929.6
2015-Jan-17 02:33N 31°22' E 121°43'644351.6
2015-Jan-17 02:32N 32°02' E 120°45'70695.4
2015-Jan-17 02:26N 30°59' E 121°20'3034.6
2015-Jan-17 01:33N 31°22' E 121°43'64152.8
2015-Jan-17 01:08N 32°02' E 120°45'64109.5
2015-Jan-17 00:33N 31°22' E 121°43'3877.1
2015-Jan-17 00:03N 31°01' E 121°06'3876.3
2015-Jan-16 23:33N 31°22' E 121°43'38150.1
2015-Jan-16 23:18N 31°01' E 121°07'41176.0
2015-Jan-16 23:04N 31°00' E 121°54'2345.0
2015-Jan-16 22:33N 31°22' E 121°43'0 0.0
2015-Jan-16 21:33N 31°22' E 121°43'37244.6
2015-Jan-16 21:24N 30°60' E 121°08'3744.0
2015-Jan-16 20:33N 31°22' E 121°43'0 0.0
2015-Jan-16 19:33N 31°22' E 121°43'0 0.0
2015-Jan-16 18:33N 31°22' E 121°43'0 0.0
2015-Jan-16 17:33N 31°22' E 121°43'36203.0
2015-Jan-16 17:23N 30°57' E 121°13'3643.6
2015-Jan-16 16:33N 31°22' E 121°43'3513800.5
2015-Jan-16 16:33N 30°58' E 121°14'3434.6
2015-Jan-16 15:33N 31°22' E 121°43'339931.4
2015-Jan-16 15:33N 30°57' E 121°17'3333.2
2015-Jan-16 14:33N 31°22' E 121°43'317400.3
2015-Jan-16 14:33N 30°59' E 121°19'3131.0
2015-Jan-16 13:33N 31°22' E 121°43'29771.8
2015-Jan-16 13:31N 30°59' E 121°22'2930.5
2015-Jan-16 12:33N 31°22' E 121°43'28723.2
2015-Jan-16 12:31N 30°59' E 121°23'2829.1
2015-Jan-16 11:33N 31°22' E 121°43'27700.5
2015-Jan-16 11:31N 30°60' E 121°25'2727.8
2015-Jan-16 10:33N 31°22' E 121°43'26746.3
2015-Jan-16 10:31N 31°00' E 121°26'2626.6
2015-Jan-16 09:33N 31°22' E 121°43'25928.3
2015-Jan-16 09:31N 31°01' E 121°27'2526.1
2015-Jan-16 08:33N 31°22' E 121°43'25757.7
2015-Jan-16 08:31N 31°01' E 121°28'2525.6
2015-Jan-16 07:33N 31°22' E 121°43'24626.2
2015-Jan-16 07:31N 31°01' E 121°29'73272.9
2015-Jan-16 07:15N 32°04' E 120°45'6593.1
2015-Jan-16 06:33N 31°21' E 121°42'22632.4
2015-Jan-16 06:31N 31°02' E 121°29'2122.2
2015-Jan-16 05:33N 31°23' E 121°34'20556.5
2015-Jan-16 05:31N 31°04' E 121°28'1717.6
2015-Jan-16 04:33N 31°20' E 121°33'15794.7
2015-Jan-16 04:32N 31°06' E 121°28'111.7
2015-Jan-16 04:27N 31°05' E 121°28'1493.3
2015-Jan-16 04:18N 30°58' E 121°13'2634.9
2015-Jan-16 03:33N 31°17' E 121°34'10343.5
2015-Jan-16 03:31N 31°08' E 121°28'3185.2
2015-Jan-16 03:30N 31°05' E 121°28'1314.0
2015-Jan-16 02:33N 31°17' E 121°34'9399.0
2015-Jan-16 02:32N 31°10' E 121°28'2 2.4
2015-Jan-16 01:33N 31°12' E 121°30'101313.4
2015-Jan-16 01:33N 31°02' E 121°29'15256.9
2015-Jan-16 01:29N 31°17' E 121°34'5 4.9
2015-Jan-16 00:32N 31°15' E 121°29'758.6
2015-Jan-16 00:25N 31°08' E 121°28'1153.6
2015-Jan-16 00:14N 31°17' E 121°34'710.4
2015-Jan-15 23:33N 31°12' E 121°29'7533.4
2015-Jan-15 23:33N 31°17' E 121°34'225.3
2015-Jan-15 23:28N 31°16' E 121°33'2 2.0
2015-Jan-15 22:33N 31°17' E 121°34'4210.0
2015-Jan-15 22:32N 31°15' E 121°30'4 3.7
2015-Jan-15 21:33N 31°17' E 121°34'012.2
2015-Jan-15 21:32N 31°17' E 121°34'4 4.6
2015-Jan-15 20:33N 31°21' E 121°31'5291.5
2015-Jan-15 20:32N 31°17' E 121°34'023.9
2015-Jan-15 20:32N 31°17' E 121°34'  
Track history (hours):
 
Tides and Currents Weather Stations Pressure Air Temp Water Temp Dewpoint Dewpoint Depression Visibility Wind Speed Wind Dir Waves Ship Positions

Spaceon02064

Last reported at 2015-Jan-25 19:33 UTC. Time now 2015-Jan-25 20:27 UTC.
Position N 31°22' E 121°28'.

Length 6 m.

Type: Ship. MMSI: 200902064.

Date/timePositionNaut miles runAvg speedWind from/ knotsBaromVisibWave heightAir tempDewpointWater temp
2015-Jan-25 19:33N 31°22' E 121°28'1313.1
2015-Jan-25 18:33N 31°22' E 121°43'1347035.6
2015-Jan-25 18:33N 31°22' E 121°28'1313.1
2015-Jan-25 17:33N 31°22' E 121°43'1311758.9
2015-Jan-25 17:33N 31°22' E 121°28'420993.9
2015-Jan-25 17:08N 24°47' E 118°46'425728.6
2015-Jan-25 16:33N 31°22' E 121°43'132231.0
2015-Jan-25 16:33N 31°22' E 121°28'1313.2
2015-Jan-25 15:33N 31°22' E 121°43'1315617.0
2015-Jan-25 15:33N 31°22' E 121°28'23722373.1
2015-Jan-25 14:33N 31°22' E 167°45'2372406586.4
2015-Jan-25 14:33N 31°22' E 121°28'1313.1
2015-Jan-25 13:33N 31°22' E 121°43'1315678.5
2015-Jan-25 13:33N 31°22' E 121°28'1313.1
2015-Jan-25 12:33N 31°22' E 121°43'13578.4
2015-Jan-25 12:32N 31°22' E 121°28'1313.3
2015-Jan-25 11:33N 31°22' E 121°43'13571.4
2015-Jan-25 11:32N 31°22' E 121°28'1313.3
2015-Jan-25 10:33N 31°22' E 121°43'0 0.0
2015-Jan-25 09:33N 31°22' E 121°43'1313.1
2015-Jan-25 08:33N 31°22' E 121°28'135226.2
2015-Jan-25 08:33N 31°22' E 121°43'1313.0
2015-Jan-25 07:33N 31°22' E 121°28'1346850.9
2015-Jan-25 07:33N 31°22' E 121°43'0 0.0
2015-Jan-25 06:33N 31°22' E 121°43'132239.8
2015-Jan-25 06:33N 31°22' E 121°28'0 0.0
2015-Jan-25 05:33N 31°22' E 121°28'224038.8
2015-Jan-25 05:33N 30°59' E 121°24'285013.7
2015-Jan-25 05:33N 31°22' E 121°43'1111.3
2015-Jan-25 04:33N 31°23' E 121°30'1120013.8
2015-Jan-25 04:33N 31°22' E 121°43'1346851.1
2015-Jan-25 04:33N 31°22' E 121°28'264216.2
2015-Jan-25 04:33N 30°57' E 121°17'3333.1
2015-Jan-25 03:33N 31°22' E 121°43'364675.5
2015-Jan-25 03:33N 30°57' E 121°12'3921815.1
2015-Jan-25 03:20N 24°47' E 118°46'425547.2
2015-Jan-25 02:33N 31°22' E 121°43'64862.7
2015-Jan-25 02:29N 32°02' E 120°45'64692.9
2015-Jan-25 02:23N 31°01' E 121°06'3845.5
2015-Jan-25 01:33N 31°22' E 121°43'42220.5
2015-Jan-25 01:22N 31°01' E 121°00'4251.8
2015-Jan-25 00:33N 31°22' E 121°43'454917.1
2015-Jan-25 00:33N 31°01' E 120°56'4545.5
2015-Jan-24 23:33N 31°22' E 121°43'0 0.0
2015-Jan-24 22:33N 31°22' E 121°43'0 0.0
2015-Jan-24 21:33N 31°22' E 121°43'0 0.0
2015-Jan-24 20:33N 31°22' E 121°43'13117.3
2015-Jan-24 20:27N 31°22' E 121°28'0 0.1
2015-Jan-24 19:33N 31°22' E 121°28'135205.7
2015-Jan-24 19:33N 31°22' E 121°43'1313.1
2015-Jan-24 18:33N 31°22' E 121°28'135226.2
2015-Jan-24 18:33N 31°22' E 121°43'28252.6
2015-Jan-24 18:26N 30°59' E 122°03'23452643.4
2015-Jan-24 17:33N 31°22' E 167°44'23582363.6
2015-Jan-24 16:33N 31°22' E 121°43'45911.2
2015-Jan-24 16:30N 31°46' E 120°59'4546.9
2015-Jan-24 15:33N 31°22' E 121°43'501136.3
2015-Jan-24 15:31N 31°50' E 120°54'53432.9
2015-Jan-24 15:23N 31°05' E 121°28'2125.3
2015-Jan-24 14:33N 31°22' E 121°43'55769.2
2015-Jan-24 14:29N 31°56' E 120°52'5559.8
2015-Jan-24 13:33N 31°22' E 121°43'6027106.2
2015-Jan-24 13:33N 32°00' E 120°48'6060.4
2015-Jan-24 12:33N 31°22' E 121°43'0 0.0
2015-Jan-24 11:33N 31°22' E 121°43'0 0.0
2015-Jan-24 10:33N 31°22' E 121°43'13223.1
2015-Jan-24 10:30N 31°22' E 121°28'1313.9
2015-Jan-24 09:33N 31°22' E 121°43'0 0.1
2015-Jan-24 08:33N 31°22' E 121°43'0 0.0
2015-Jan-24 07:33N 31°22' E 121°43'15139.8
2015-Jan-24 07:27N 31°21' E 121°26'41820058.7
2015-Jan-24 07:26N 24°47' E 118°47'424484.6
2015-Jan-24 06:33N 31°22' E 121°43'153497.6
2015-Jan-24 06:33N 31°21' E 121°26'1680.9
2015-Jan-24 06:21N 31°05' E 121°28'2126.6
2015-Jan-24 05:33N 31°22' E 121°43'15607.9
2015-Jan-24 05:32N 31°21' E 121°26'563446.7
2015-Jan-24 05:31N 32°04' E 120°45'6568.0
2015-Jan-24 04:33N 31°22' E 121°43'153267.6
2015-Jan-24 04:33N 31°21' E 121°26'0 0.0
2015-Jan-24 03:33N 31°21' E 121°26'1510456.0
2015-Jan-24 03:33N 31°22' E 121°43'0 0.0
2015-Jan-24 02:33N 31°22' E 121°43'153485.5
2015-Jan-24 02:33N 31°21' E 121°26'1514.5
2015-Jan-24 01:33N 31°22' E 121°43'153485.4
2015-Jan-24 01:33N 31°21' E 121°26'0 0.0
2015-Jan-24 00:33N 31°21' E 121°26'15804.3
2015-Jan-24 00:32N 31°22' E 121°43'1514.8
2015-Jan-23 23:33N 31°21' E 121°26'15815.5
2015-Jan-23 23:32N 31°22' E 121°43'1515.0
2015-Jan-23 22:33N 31°21' E 121°26'1513252.0
2015-Jan-23 22:33N 31°22' E 121°43'1514.7
2015-Jan-23 21:33N 31°21' E 121°26'1510601.8
2015-Jan-23 21:33N 31°22' E 121°43'0 0.0
2015-Jan-23 20:33N 31°22' E 121°43'153533.9
2015-Jan-23 20:33N 31°21' E 121°26'1514.8
2015-Jan-23 19:33N 31°22' E 121°43'153533.9
2015-Jan-23 19:33N 31°21' E 121°26'0 0.0
2015-Jan-23 18:34N 31°21' E 121°26'1510601.6
2015-Jan-23 18:33N 31°22' E 121°43'0 0.0
2015-Jan-23 17:33N 31°22' E 121°43'15706.8
2015-Jan-23 17:32N 31°21' E 121°26'1515.0
2015-Jan-23 16:33N 31°22' E 121°43'15214.6
2015-Jan-23 16:29N 31°21' E 121°26'1515.9
2015-Jan-23 15:33N 31°22' E 121°43'15546.5
2015-Jan-23 15:32N 31°21' E 121°26'1515.1
2015-Jan-23 14:33N 31°22' E 121°43'153534.0
2015-Jan-23 14:33N 31°21' E 121°26'1514.8
2015-Jan-23 13:33N 31°22' E 121°43'15981.7
2015-Jan-23 13:32N 31°21' E 121°26'0 0.0
2015-Jan-23 12:33N 31°21' E 121°26'1513252.2
2015-Jan-23 12:33N 31°22' E 121°43'1414.5
2015-Jan-23 11:33N 31°21' E 121°26'142170.4
2015-Jan-23 11:33N 31°22' E 121°43'1414.4
2015-Jan-23 10:33N 31°21' E 121°27'1410302.5
2015-Jan-23 10:33N 31°22' E 121°43'1414.3
2015-Jan-23 09:33N 31°21' E 121°27'1410302.2
2015-Jan-23 09:33N 31°22' E 121°43'1414.3
2015-Jan-23 08:33N 31°21' E 121°27'143434.1
2015-Jan-23 08:33N 31°22' E 121°43'21801.0
2015-Jan-23 08:32N 31°05' E 121°28'1616.8
2015-Jan-23 07:33N 31°21' E 121°27'1412877.7
2015-Jan-23 07:33N 31°22' E 121°43'21112.1
2015-Jan-23 07:22N 31°05' E 121°28'1620.1
2015-Jan-23 06:33N 31°21' E 121°27'146438.9
2015-Jan-23 06:33N 31°22' E 121°43'0 0.2
2015-Jan-23 05:33N 31°22' E 121°43'1414.2
2015-Jan-23 04:33N 31°21' E 121°27'141415.7
2015-Jan-23 04:33N 31°22' E 121°43'0 0.0
2015-Jan-23 03:33N 31°22' E 121°43'14485.4
2015-Jan-23 03:31N 31°21' E 121°27'16273.5
2015-Jan-23 03:27N 31°05' E 121°28'2123.7
2015-Jan-23 02:33N 31°22' E 121°43'14536.5
2015-Jan-23 02:32N 31°21' E 121°27'7253.3
2015-Jan-23 02:30N 31°27' E 121°29'2393.3
2015-Jan-23 02:16N 31°05' E 121°28'2130.2
2015-Jan-23 01:33N 31°22' E 121°43'141415.7
2015-Jan-23 01:33N 31°21' E 121°27'5371.1
2015-Jan-23 01:32N 31°25' E 121°31'1111.0
2015-Jan-23 00:33N 31°22' E 121°43'141415.7
2015-Jan-23 00:33N 31°21' E 121°27'1414.3
2015-Jan-22 23:33N 31°22' E 121°43'147281.0
2015-Jan-22 23:33N 31°21' E 121°27'0 0.0
2015-Jan-22 22:33N 31°21' E 121°27'1416988.6
2015-Jan-22 22:33N 31°22' E 121°43'0 0.0
2015-Jan-22 21:33N 31°22' E 121°43'148494.5
2015-Jan-22 21:33N 31°21' E 121°27'1414.2
2015-Jan-22 20:33N 31°22' E 121°43'14374.8
2015-Jan-22 20:31N 31°21' E 121°27'1414.7
2015-Jan-22 19:33N 31°22' E 121°43'1414.0
2015-Jan-22 18:33N 31°21' E 121°27'1412598.6
2015-Jan-22 18:33N 31°22' E 121°43'2176197.5
2015-Jan-22 18:33N 31°05' E 121°28'1818.5
2015-Jan-22 17:33N 31°23' E 121°30'111667.7
2015-Jan-22 17:33N 31°22' E 121°43'0 0.0
2015-Jan-22 16:33N 31°22' E 121°43'0 0.0
2015-Jan-22 15:33N 31°22' E 121°43'11599.7
2015-Jan-22 15:32N 31°24' E 121°31'2626.9
2015-Jan-22 14:33N 30°59' E 121°22'2951783.7
2015-Jan-22 14:33N 31°22' E 121°43'11532.1
2015-Jan-22 14:32N 31°24' E 121°31'1111.2
2015-Jan-22 13:33N 31°22' E 121°43'131529.1
2015-Jan-22 13:33N 31°26' E 121°29'1313.3
2015-Jan-22 12:33N 31°22' E 121°43'2251.7
2015-Jan-22 12:08N 31°32' E 121°20'2239.0
2015-Jan-22 11:33N 31°22' E 121°43'0 0.0
2015-Jan-22 10:33N 31°22' E 121°43'0 0.0
2015-Jan-22 09:33N 31°22' E 121°43'0 0.0
2015-Jan-22 08:33N 31°22' E 121°43'0 0.0
2015-Jan-22 07:33N 31°22' E 121°43'0 0.0
2015-Jan-22 06:33N 31°22' E 121°43'0 0.0
2015-Jan-22 05:33N 31°22' E 121°43'41560.4
2015-Jan-22 05:29N 31°45' E 121°04'4144.3
2015-Jan-22 04:33N 31°22' E 121°43'0 0.0
2015-Jan-22 03:33N 31°22' E 121°43'0 0.0
2015-Jan-22 02:33N 31°22' E 121°43'451814.6
2015-Jan-22 02:32N 31°46' E 120°59'4546.2
2015-Jan-22 01:33N 31°22' E 121°43'511251.6
2015-Jan-22 01:31N 31°51' E 120°53'7 7.0
2015-Jan-22 00:34N 31°57' E 120°51'577558.8
2015-Jan-22 00:33N 31°22' E 121°43'0 0.0
2015-Jan-21 23:33N 31°22' E 121°43'5917659.3
2015-Jan-21 23:33N 31°59' E 120°50'5983.2
2015-Jan-21 22:50N 31°22' E 121°43'5917658.2
2015-Jan-21 22:50N 31°59' E 120°50'59890.3
2015-Jan-21 22:46N 31°22' E 121°43'5970637.4
2015-Jan-21 22:46N 31°59' E 120°50'0 0.0
2015-Jan-21 22:34N 31°59' E 120°50'598150.5
2015-Jan-21 22:33N 31°22' E 121°43'0 0.0
2015-Jan-21 21:33N 31°22' E 121°43'59211939.3
2015-Jan-21 21:33N 31°59' E 120°50'0 0.1
2015-Jan-21 20:34N 31°59' E 120°50'5930307.1
2015-Jan-21 20:33N 31°22' E 121°43'5959.1
2015-Jan-21 19:34N 31°59' E 120°49'5935384.3
2015-Jan-21 19:33N 31°22' E 121°43'0 0.0
2015-Jan-21 18:33N 31°22' E 121°43'59578.5
2015-Jan-21 18:27N 31°59' E 120°49'26183.0
2015-Jan-21 18:19N 31°58' E 120°18'81106.0
2015-Jan-21 17:33N 31°22' E 121°43'7893392.4
2015-Jan-21 17:33N 32°00' E 120°24'227221.2
2015-Jan-21 17:33N 31°59' E 120°50'5959.6
2015-Jan-21 16:33N 31°22' E 121°43'742359.8
2015-Jan-21 16:32N 32°02' E 120°30'171041.1
2015-Jan-21 16:31N 31°59' E 120°50'5961.8
2015-Jan-21 15:33N 31°22' E 121°43'5917659.3
2015-Jan-21 15:33N 31°59' E 120°50'5959.1
2015-Jan-21 14:33N 31°22' E 121°43'5942382.4
2015-Jan-21 14:33N 31°59' E 120°50'5959.0
2015-Jan-21 13:33N 31°22' E 121°43'59566.6
2015-Jan-21 13:27N 31°59' E 120°50'1 4.5
2015-Jan-21 13:13N 31°59' E 120°51'5887.2
2015-Jan-21 12:33N 31°22' E 121°43'62654.7
2015-Jan-21 12:28N 32°00' E 120°47'856.7
2015-Jan-21 12:19N 31°54' E 120°53'5370.5
2015-Jan-21 11:33N 31°22' E 121°43'66447.4
2015-Jan-21 11:25N 31°60' E 120°39'18213.3
2015-Jan-21 11:20N 31°49' E 120°56'4963.4
2015-Jan-21 10:33N 31°22' E 121°43'714109.0
2015-Jan-21 10:32N 32°00' E 120°34'7171.8
2015-Jan-21 09:33N 31°22' E 121°43'7522636.1
2015-Jan-21 09:33N 32°02' E 120°28'7575.9
2015-Jan-21 08:33N 31°22' E 121°43'78139805.3
2015-Jan-21 08:33N 32°00' E 120°24'51127.4
2015-Jan-21 08:09N 31°38' E 121°18'2744.9
2015-Jan-21 07:33N 31°22' E 121°43'2280774.1
2015-Jan-21 07:33N 31°37' E 121°24'57403.4
2015-Jan-21 07:25N 31°59' E 120°21'0 0.1
2015-Jan-21 06:34N 31°59' E 120°21'7917737.2
2015-Jan-21 06:33N 31°22' E 121°43'8282.4
2015-Jan-21 05:33N 31°56' E 120°16'823360.7
2015-Jan-21 05:32N 31°22' E 121°43'20197.5
2015-Jan-21 05:26N 31°07' E 121°28'8496.3
2015-Jan-21 04:34N 31°56' E 120°07'8337282.5
2015-Jan-21 04:33N 31°12' E 121°29'154245.7
2015-Jan-21 04:33N 31°22' E 121°43'1424867.5
2015-Jan-21 04:33N 31°13' E 121°30'1413.9
2015-Jan-21 03:33N 31°22' E 121°43'0 0.0
2015-Jan-21 02:33N 31°22' E 121°43'1197.3
2015-Jan-21 02:26N 31°21' E 121°30'1112.4
2015-Jan-21 01:33N 31°22' E 121°43'1334.5
2015-Jan-21 01:10N 31°26' E 121°28'1321.6
2015-Jan-21 00:33N 31°22' E 121°43'0 0.0
2015-Jan-20 23:33N 31°22' E 121°43'0 0.0
2015-Jan-20 22:33N 31°22' E 121°43'0 0.0
2015-Jan-20 21:33N 31°22' E 121°43'0 0.0
2015-Jan-20 20:34N 31°22' E 121°43'0 0.0
2015-Jan-20 19:33N 31°22' E 121°43'0 0.0
2015-Jan-20 18:33N 31°22' E 121°43'0 0.0
2015-Jan-20 17:33N 31°22' E 121°43'17826.0
2015-Jan-20 17:32N 31°34' E 121°30'1717.3
2015-Jan-20 16:33N 31°22' E 121°43'0 0.0
2015-Jan-20 15:33N 31°22' E 121°43'0 0.0
2015-Jan-20 14:33N 31°22' E 121°43'0 0.0
2015-Jan-20 13:33N 31°22' E 121°43'0 0.0
2015-Jan-20 12:33N 31°22' E 121°43'1861.0
2015-Jan-20 12:15N 31°07' E 121°55'5 7.3
2015-Jan-20 11:33N 31°10' E 121°51'1323585.2
2015-Jan-20 11:33N 31°22' E 121°43'0 0.0
2015-Jan-20 10:33N 31°22' E 121°43'0 0.0
2015-Jan-20 09:32N 31°22' E 121°43'0 0.0
2015-Jan-20 08:33N 31°22' E 121°43'0 0.0
2015-Jan-20 07:33N 31°22' E 121°43'0 0.0
2015-Jan-20 06:33N 31°22' E 121°43'0 0.0
2015-Jan-20 05:33N 31°22' E 121°43'0 0.0
2015-Jan-20 04:32N 31°22' E 121°43'0 0.0
2015-Jan-20 03:33N 31°22' E 121°43'424217833.0
2015-Jan-20 03:33N 24°47' E 118°49'424414.6
2015-Jan-20 02:32N 31°22' E 121°43'0 0.1
2015-Jan-20 01:33N 31°22' E 121°43'1044.5
2015-Jan-20 01:19N 31°25' E 121°32'4 4.9
2015-Jan-20 00:33N 31°21' E 121°32'6 5.4
2015-Jan-19 23:26N 31°15' E 121°30'13 6.8
2015-Jan-19 21:32N 31°22' E 121°43'0 0.0
2015-Jan-19 20:33N 31°22' E 121°43'0 0.0
2015-Jan-19 19:33N 31°22' E 121°43'17664.5
2015-Jan-19 19:32N 31°34' E 121°30'1717.4
2015-Jan-19 18:33N 31°22' E 121°43'0 0.0
2015-Jan-19 17:33N 31°22' E 121°43'0 0.0
2015-Jan-19 16:33N 31°22' E 121°43'410.9
2015-Jan-19 16:13N 31°24' E 121°46'4 5.8
2015-Jan-19 15:33N 31°22' E 121°43'5518.8
2015-Jan-19 15:33N 31°19' E 121°48'5 4.9
2015-Jan-19 14:33N 31°22' E 121°43'221.2
2015-Jan-19 14:29N 31°20' E 121°43'2 1.7
2015-Jan-19 13:33N 31°22' E 121°43'686.0
2015-Jan-19 13:29N 31°16' E 121°46'6 6.6
2015-Jan-19 12:33N 31°22' E 121°43'14421.1
2015-Jan-19 12:32N 31°10' E 121°52'1414.4
2015-Jan-19 11:33N 31°22' E 121°43'0 0.0
2015-Jan-19 10:33N 31°22' E 121°43'0 0.0
2015-Jan-19 09:33N 31°22' E 121°43'0 0.0
2015-Jan-19 08:33N 31°22' E 121°43'2166.1
2015-Jan-19 08:14N 31°05' E 121°28'2131.6
2015-Jan-19 07:33N 31°22' E 121°43'0 0.0
2015-Jan-19 06:33N 31°22' E 121°43'34153.6
2015-Jan-19 06:20N 30°58' E 121°15'45490.6
2015-Jan-19 06:15N 30°49' E 122°07'3956.1
2015-Jan-19 05:33N 31°22' E 121°43'212257.6
2015-Jan-19 05:33N 31°05' E 121°28'3598.3
2015-Jan-19 05:12N 30°44' E 121°60'4163.6
2015-Jan-19 04:33N 31°22' E 121°43'2262.4
2015-Jan-19 04:12N 31°03' E 121°29'2234.7
2015-Jan-19 03:33N 31°22' E 121°43'191340.2
2015-Jan-19 03:32N 31°07' E 121°28'1919.7
2015-Jan-19 02:33N 31°22' E 121°43'1479.5
2015-Jan-19 02:23N 31°14' E 121°30'1416.8
2015-Jan-19 01:33N 31°22' E 121°43'1110.8
2015-Jan-19 00:33N 31°21' E 121°31'119692.4
2015-Jan-19 00:33N 31°22' E 121°43'211110.1
2015-Jan-19 00:32N 31°05' E 121°28'2121.6
2015-Jan-18 23:33N 31°22' E 121°43'13257.3
2015-Jan-18 23:30N 31°26' E 121°29'1313.9
2015-Jan-18 22:33N 31°22' E 121°43'851183.5
2015-Jan-18 22:28N 29°58' E 122°03'8593.3
2015-Jan-18 21:33N 31°22' E 121°43'0 0.0
2015-Jan-18 20:33N 31°22' E 121°43'963799.4
2015-Jan-18 20:32N 29°47' E 122°04'9698.5
2015-Jan-18 19:33N 31°22' E 121°43'0 0.0
2015-Jan-18 18:33N 31°22' E 121°43'0 0.0
2015-Jan-18 17:33N 31°22' E 121°43'0 0.0
2015-Jan-18 16:33N 31°22' E 121°43'0 0.0
2015-Jan-18 15:33N 31°22' E 121°43'0 0.0
2015-Jan-18 14:33N 31°22' E 121°43'0 0.0
2015-Jan-18 13:33N 31°22' E 121°43'0 0.0
2015-Jan-18 12:33N 31°22' E 121°43'0 0.0
2015-Jan-18 11:33N 31°22' E 121°43'0 0.0
2015-Jan-18 10:33N 31°22' E 121°43'6114551.8
2015-Jan-18 10:33N 32°00' E 120°48'6160.5
2015-Jan-18 09:33N 31°22' E 121°43'661898.6
2015-Jan-18 09:31N 31°60' E 120°39'6 6.5
2015-Jan-18 08:33N 32°01' E 120°32'7286878.9
2015-Jan-18 08:33N 31°22' E 121°43'7777.1
2015-Jan-18 07:33N 32°01' E 120°25'7719789.3
2015-Jan-18 07:33N 31°22' E 121°43'7979.7
2015-Jan-18 06:33N 31°58' E 120°20'79142974.2
2015-Jan-18 06:33N 31°22' E 121°43'0 0.0
2015-Jan-18 05:34N 31°22' E 121°43'8221148.3
2015-Jan-18 05:33N 31°56' E 120°15'8282.3
2015-Jan-18 04:33N 31°22' E 121°43'8710465.0
2015-Jan-18 04:33N 31°56' E 120°09'8788.0
2015-Jan-18 03:33N 31°22' E 121°43'96507.4
2015-Jan-18 03:22N 31°59' E 119°60'96117.1
2015-Jan-18 02:33N 31°22' E 121°43'0 0.0
2015-Jan-18 01:33N 31°22' E 121°43'0 0.0
2015-Jan-18 00:33N 31°22' E 121°43'4252316.5
2015-Jan-18 00:22N 24°47' E 118°46'425518.6
2015-Jan-17 23:33N 31°22' E 121°43'4259046.6
2015-Jan-17 23:30N 24°47' E 118°46'425446.8
2015-Jan-17 22:33N 31°22' E 121°43'425885.8
2015-Jan-17 22:05N 24°47' E 118°46'425816.3
2015-Jan-17 21:33N 31°22' E 121°43'2459.7
2015-Jan-17 21:09N 31°02' E 121°59'2440.7
2015-Jan-17 20:33N 31°22' E 121°43'0 0.0
2015-Jan-17 19:33N 31°22' E 121°43'0 0.0
2015-Jan-17 18:33N 31°22' E 121°43'0 0.0
2015-Jan-17 17:33N 31°22' E 121°43'0 0.0
2015-Jan-17 16:33N 31°22' E 121°43'0 0.0
2015-Jan-17 15:33N 31°22' E 121°43'0 0.0
2015-Jan-17 14:33N 31°22' E 121°43'0 0.0
2015-Jan-17 13:33N 31°22' E 121°43'0 0.0
2015-Jan-17 12:33N 31°22' E 121°43'0 0.0
2015-Jan-17 11:33N 31°22' E 121°43'0 0.0
2015-Jan-17 10:33N 31°22' E 121°43'4253294.9
2015-Jan-17 10:25N 24°47' E 118°46'425489.4
2015-Jan-17 09:33N 31°22' E 121°43'4253203.9
2015-Jan-17 09:25N 24°47' E 118°46'425487.6
2015-Jan-17 08:33N 31°22' E 121°43'42114147.7
2015-Jan-17 08:31N 24°48' E 118°56'405847.9
2015-Jan-17 08:03N 31°10' E 121°28'1836.0
2015-Jan-17 07:33N 31°22' E 121°43'0 0.0
2015-Jan-17 06:33N 31°22' E 121°43'0 0.0
2015-Jan-17 05:33N 31°22' E 121°43'28260.1
2015-Jan-17 05:27N 30°59' E 121°24'2831.1
2015-Jan-17 04:33N 31°22' E 121°43'291110.8
2015-Jan-17 04:32N 30°59' E 121°22'2929.8
2015-Jan-17 03:33N 31°22' E 121°43'291044.0
2015-Jan-17 03:32N 30°59' E 121°22'2929.6
2015-Jan-17 02:33N 31°22' E 121°43'644351.6
2015-Jan-17 02:32N 32°02' E 120°45'70695.4
2015-Jan-17 02:26N 30°59' E 121°20'3034.6
2015-Jan-17 01:33N 31°22' E 121°43'64152.8
2015-Jan-17 01:08N 32°02' E 120°45'64109.5
2015-Jan-17 00:33N 31°22' E 121°43'3877.1
2015-Jan-17 00:03N 31°01' E 121°06'3876.3
2015-Jan-16 23:33N 31°22' E 121°43'38150.1
2015-Jan-16 23:18N 31°01' E 121°07'41176.0
2015-Jan-16 23:04N 31°00' E 121°54'2345.0
2015-Jan-16 22:33N 31°22' E 121°43'0 0.0
2015-Jan-16 21:33N 31°22' E 121°43'37244.6
2015-Jan-16 21:24N 30°60' E 121°08'3744.0
2015-Jan-16 20:33N 31°22' E 121°43'0 0.0
2015-Jan-16 19:33N 31°22' E 121°43'0 0.0
2015-Jan-16 18:33N 31°22' E 121°43'0 0.0
2015-Jan-16 17:33N 31°22' E 121°43'36203.0
2015-Jan-16 17:23N 30°57' E 121°13'3643.6
2015-Jan-16 16:33N 31°22' E 121°43'3513800.5
2015-Jan-16 16:33N 30°58' E 121°14'3434.6
2015-Jan-16 15:33N 31°22' E 121°43'339931.4
2015-Jan-16 15:33N 30°57' E 121°17'3333.2
2015-Jan-16 14:33N 31°22' E 121°43'317400.3
2015-Jan-16 14:33N 30°59' E 121°19'3131.0
2015-Jan-16 13:33N 31°22' E 121°43'29771.8
2015-Jan-16 13:31N 30°59' E 121°22'2930.5
2015-Jan-16 12:33N 31°22' E 121°43'28723.2
2015-Jan-16 12:31N 30°59' E 121°23'2829.1
2015-Jan-16 11:33N 31°22' E 121°43'27700.5
2015-Jan-16 11:31N 30°60' E 121°25'2727.8
2015-Jan-16 10:33N 31°22' E 121°43'26746.3
2015-Jan-16 10:31N 31°00' E 121°26'2626.6
2015-Jan-16 09:33N 31°22' E 121°43'25928.3
2015-Jan-16 09:31N 31°01' E 121°27'2526.1
2015-Jan-16 08:33N 31°22' E 121°43'25757.7
2015-Jan-16 08:31N 31°01' E 121°28'2525.6
2015-Jan-16 07:33N 31°22' E 121°43'24626.2
2015-Jan-16 07:31N 31°01' E 121°29'73272.9
2015-Jan-16 07:15N 32°04' E 120°45'6593.1
2015-Jan-16 06:33N 31°21' E 121°42'22632.4
2015-Jan-16 06:31N 31°02' E 121°29'2122.2
2015-Jan-16 05:33N 31°23' E 121°34'20556.5
2015-Jan-16 05:31N 31°04' E 121°28'1717.6
2015-Jan-16 04:33N 31°20' E 121°33'15794.7
2015-Jan-16 04:32N 31°06' E 121°28'111.7
2015-Jan-16 04:27N 31°05' E 121°28'1493.3
2015-Jan-16 04:18N 30°58' E 121°13'2634.9
2015-Jan-16 03:33N 31°17' E 121°34'10343.5
2015-Jan-16 03:31N 31°08' E 121°28'3185.2
2015-Jan-16 03:30N 31°05' E 121°28'1314.0
2015-Jan-16 02:33N 31°17' E 121°34'9399.0
2015-Jan-16 02:32N 31°10' E 121°28'2 2.4
2015-Jan-16 01:33N 31°12' E 121°30'101313.4
2015-Jan-16 01:33N 31°02' E 121°29'15256.9
2015-Jan-16 01:29N 31°17' E 121°34'5 4.9
2015-Jan-16 00:32N 31°15' E 121°29'758.6
2015-Jan-16 00:25N 31°08' E 121°28'1153.6
2015-Jan-16 00:14N 31°17' E 121°34'710.4
2015-Jan-15 23:33N 31°12' E 121°29'7533.4
2015-Jan-15 23:33N 31°17' E 121°34'225.3
2015-Jan-15 23:28N 31°16' E 121°33'2 2.0
2015-Jan-15 22:33N 31°17' E 121°34'4210.0
2015-Jan-15 22:32N 31°15' E 121°30'4 3.7
2015-Jan-15 21:33N 31°17' E 121°34'012.2
2015-Jan-15 21:32N 31°17' E 121°34'4 4.6
2015-Jan-15 20:33N 31°21' E 121°31'5291.5
2015-Jan-15 20:32N 31°17' E 121°34'023.9
2015-Jan-15 20:32N 31°17' E 121°34'  

Dump ship's entire track history